sensor_id;sensor_type;location;lat;lon;timestamp;temperature;humidity
70593;DHT22;58294;42.988;20.338;2023-08-06T00:00:09;461.60;2380.80
70593;DHT22;58294;42.988;20.338;2023-08-06T00:02:35;461.70;2380.80
70593;DHT22;58294;42.988;20.338;2023-08-06T00:05:01;461.70;2380.80
70593;DHT22;58294;42.988;20.338;2023-08-06T00:07:27;486.40;2380.80
70593;DHT22;58294;42.988;20.338;2023-08-06T00:09:53;461.70;2380.80
70593;DHT22;58294;42.988;20.338;2023-08-06T00:12:18;461.70;2380.80
70593;DHT22;58294;42.988;20.338;2023-08-06T00:14:44;461.70;2380.80
70593;DHT22;58294;42.988;20.338;2023-08-06T00:17:10;461.70;2380.80
70593;DHT22;58294;42.988;20.338;2023-08-06T00:19:36;461.70;2380.80
70593;DHT22;58294;42.988;20.338;2023-08-06T00:22:02;461.70;2380.80
70593;DHT22;58294;42.988;20.338;2023-08-06T00:24:28;461.70;2380.80
70593;DHT22;58294;42.988;20.338;2023-08-06T00:26:54;461.70;2380.80
70593;DHT22;58294;42.988;20.338;2023-08-06T00:29:19;461.70;2380.80
70593;DHT22;58294;42.988;20.338;2023-08-06T00:31:45;461.70;2380.80
70593;DHT22;58294;42.988;20.338;2023-08-06T00:34:11;486.40;2380.80
70593;DHT22;58294;42.988;20.338;2023-08-06T00:36:37;486.40;2380.80
70593;DHT22;58294;42.988;20.338;2023-08-06T00:39:02;461.70;2380.80
70593;DHT22;58294;42.988;20.338;2023-08-06T00:41:28;461.70;2380.80
70593;DHT22;58294;42.988;20.338;2023-08-06T00:43:54;461.60;2380.80
70593;DHT22;58294;42.988;20.338;2023-08-06T00:46:20;461.60;2380.80
70593;DHT22;58294;42.988;20.338;2023-08-06T00:48:47;461.60;2380.80
70593;DHT22;58294;42.988;20.338;2023-08-06T00:51:13;461.60;2380.80
70593;DHT22;58294;42.988;20.338;2023-08-06T00:53:40;461.60;2380.80
70593;DHT22;58294;42.988;20.338;2023-08-06T00:56:07;461.60;2380.80
70593;DHT22;58294;42.988;20.338;2023-08-06T00:58:33;461.60;2380.80
70593;DHT22;58294;42.988;20.338;2023-08-06T01:00:59;461.60;2380.80
70593;DHT22;58294;42.988;20.338;2023-08-06T01:03:25;461.60;2380.80
70593;DHT22;58294;42.988;20.338;2023-08-06T01:05:51;461.60;2380.80
70593;DHT22;58294;42.988;20.338;2023-08-06T01:08:46;461.60;2380.80
70593;DHT22;58294;42.988;20.338;2023-08-06T01:11:45;461.60;2380.80
70593;DHT22;58294;42.988;20.338;2023-08-06T01:14:21;461.60;2380.80
70593;DHT22;58294;42.988;20.338;2023-08-06T01:16:51;461.50;2380.80
70593;DHT22;58294;42.988;20.338;2023-08-06T01:19:18;461.50;2380.80
70593;DHT22;58294;42.988;20.338;2023-08-06T01:21:43;461.50;2380.80
70593;DHT22;58294;42.988;20.338;2023-08-06T01:24:09;461.50;2380.80
70593;DHT22;58294;42.988;20.338;2023-08-06T01:26:50;461.50;2380.80
70593;DHT22;58294;42.988;20.338;2023-08-06T01:29:24;461.50;2380.80
70593;DHT22;58294;42.988;20.338;2023-08-06T01:31:52;461.50;2380.80
70593;DHT22;58294;42.988;20.338;2023-08-06T01:34:23;461.40;2380.80
70593;DHT22;58294;42.988;20.338;2023-08-06T01:36:50;461.40;2380.80
70593;DHT22;58294;42.988;20.338;2023-08-06T01:39:16;461.40;2380.80
70593;DHT22;58294;42.988;20.338;2023-08-06T01:41:42;461.30;2380.80
70593;DHT22;58294;42.988;20.338;2023-08-06T01:44:08;461.30;2380.80
70593;DHT22;58294;42.988;20.338;2023-08-06T01:46:34;461.30;2380.80
70593;DHT22;58294;42.988;20.338;2023-08-06T01:48:59;461.20;2380.80
70593;DHT22;58294;42.988;20.338;2023-08-06T01:51:25;461.20;2380.80
70593;DHT22;58294;42.988;20.338;2023-08-06T01:53:51;461.10;2380.80
70593;DHT22;58294;42.988;20.338;2023-08-06T01:56:17;461.00;2380.80
70593;DHT22;58294;42.988;20.338;2023-08-06T01:58:42;460.90;2380.80
70593;DHT22;58294;42.988;20.338;2023-08-06T02:01:08;460.90;2380.80
70593;DHT22;58294;42.988;20.338;2023-08-06T02:03:34;460.80;2380.80
70593;DHT22;58294;42.988;20.338;2023-08-06T02:06:00;460.80;2380.80
70593;DHT22;58294;42.988;20.338;2023-08-06T02:08:27;460.80;2380.80
70593;DHT22;58294;42.988;20.338;2023-08-06T02:10:53;460.80;2380.80
70593;DHT22;58294;42.988;20.338;2023-08-06T02:13:19;460.80;2380.80
70593;DHT22;58294;42.988;20.338;2023-08-06T02:15:45;460.80;2380.80
70593;DHT22;58294;42.988;20.338;2023-08-06T02:18:13;460.80;2380.80
70593;DHT22;58294;42.988;20.338;2023-08-06T02:20:40;460.80;2380.80
70593;DHT22;58294;42.988;20.338;2023-08-06T02:23:06;460.80;2380.80
70593;DHT22;58294;42.988;20.338;2023-08-06T02:25:32;460.90;2380.80
70593;DHT22;58294;42.988;20.338;2023-08-06T02:27:58;460.90;2380.80
70593;DHT22;58294;42.988;20.338;2023-08-06T02:30:24;460.90;2380.80
70593;DHT22;58294;42.988;20.338;2023-08-06T02:32:49;460.90;2380.80
70593;DHT22;58294;42.988;20.338;2023-08-06T02:35:15;460.90;2380.80
70593;DHT22;58294;42.988;20.338;2023-08-06T02:37:41;460.90;2380.80
70593;DHT22;58294;42.988;20.338;2023-08-06T02:40:07;460.90;2380.80
70593;DHT22;58294;42.988;20.338;2023-08-06T02:42:33;460.90;2380.80
70593;DHT22;58294;42.988;20.338;2023-08-06T02:44:59;461.00;2380.80
70593;DHT22;58294;42.988;20.338;2023-08-06T02:47:25;461.00;2380.80
70593;DHT22;58294;42.988;20.338;2023-08-06T02:49:51;461.00;2380.80
70593;DHT22;58294;42.988;20.338;2023-08-06T02:52:16;461.00;2380.80
70593;DHT22;58294;42.988;20.338;2023-08-06T02:54:42;460.90;2380.80
70593;DHT22;58294;42.988;20.338;2023-08-06T02:57:08;460.90;2380.80
70593;DHT22;58294;42.988;20.338;2023-08-06T02:59:34;460.80;2380.80
70593;DHT22;58294;42.988;20.338;2023-08-06T03:02:00;460.80;2380.80
70593;DHT22;58294;42.988;20.338;2023-08-06T03:04:26;460.80;2380.80
70593;DHT22;58294;42.988;20.338;2023-08-06T03:06:52;460.80;2380.80
70593;DHT22;58294;42.988;20.338;2023-08-06T03:09:18;460.80;2380.80
70593;DHT22;58294;42.988;20.338;2023-08-06T03:11:44;436.10;2355.20
70593;DHT22;58294;42.988;20.338;2023-08-06T03:14:10;436.00;2355.20
70593;DHT22;58294;42.988;20.338;2023-08-06T03:16:36;436.00;2355.20
70593;DHT22;58294;42.988;20.338;2023-08-06T03:19:02;436.00;2355.20
70593;DHT22;58294;42.988;20.338;2023-08-06T03:21:27;436.00;2355.20
70593;DHT22;58294;42.988;20.338;2023-08-06T03:23:53;436.00;2355.20
70593;DHT22;58294;42.988;20.338;2023-08-06T03:26:19;436.10;2355.20
70593;DHT22;58294;42.988;20.338;2023-08-06T03:28:45;436.00;2355.20
70593;DHT22;58294;42.988;20.338;2023-08-06T03:31:10;436.00;2355.20
70593;DHT22;58294;42.988;20.338;2023-08-06T03:33:36;436.00;2355.20
70593;DHT22;58294;42.988;20.338;2023-08-06T03:36:02;436.00;2355.20
70593;DHT22;58294;42.988;20.338;2023-08-06T03:38:28;436.00;2355.20
70593;DHT22;58294;42.988;20.338;2023-08-06T03:40:54;436.00;2355.20
70593;DHT22;58294;42.988;20.338;2023-08-06T03:43:20;436.00;2355.20
70593;DHT22;58294;42.988;20.338;2023-08-06T03:45:46;436.00;2355.20
70593;DHT22;58294;42.988;20.338;2023-08-06T03:48:11;436.00;2355.20
70593;DHT22;58294;42.988;20.338;2023-08-06T03:50:37;436.00;2355.20
70593;DHT22;58294;42.988;20.338;2023-08-06T03:53:04;436.00;2355.20
70593;DHT22;58294;42.988;20.338;2023-08-06T03:55:30;436.00;2355.20
70593;DHT22;58294;42.988;20.338;2023-08-06T03:57:55;436.10;2355.20
70593;DHT22;58294;42.988;20.338;2023-08-06T04:00:21;436.00;2355.20
70593;DHT22;58294;42.988;20.338;2023-08-06T04:02:47;436.10;2355.20
70593;DHT22;58294;42.988;20.338;2023-08-06T04:05:13;436.10;2355.20
70593;DHT22;58294;42.988;20.338;2023-08-06T04:07:39;436.10;2355.20
70593;DHT22;58294;42.988;20.338;2023-08-06T04:10:05;436.10;2355.20
70593;DHT22;58294;42.988;20.338;2023-08-06T04:12:31;436.10;2355.20
70593;DHT22;58294;42.988;20.338;2023-08-06T04:15:01;436.10;2355.20
70593;DHT22;58294;42.988;20.338;2023-08-06T04:17:27;436.10;2355.20
70593;DHT22;58294;42.988;20.338;2023-08-06T04:19:54;460.80;2380.80
70593;DHT22;58294;42.988;20.338;2023-08-06T04:22:23;460.80;2380.80
70593;DHT22;58294;42.988;20.338;2023-08-06T04:24:49;436.10;2355.20
70593;DHT22;58294;42.988;20.338;2023-08-06T04:27:16;436.10;2355.20
70593;DHT22;58294;42.988;20.338;2023-08-06T04:29:42;436.10;2355.20
70593;DHT22;58294;42.988;20.338;2023-08-06T04:32:09;460.80;2380.80
70593;DHT22;58294;42.988;20.338;2023-08-06T04:34:36;460.80;2380.80
70593;DHT22;58294;42.988;20.338;2023-08-06T04:37:03;460.80;2380.80
70593;DHT22;58294;42.988;20.338;2023-08-06T04:39:29;460.80;2380.80
70593;DHT22;58294;42.988;20.338;2023-08-06T04:41:56;460.80;2380.80
70593;DHT22;58294;42.988;20.338;2023-08-06T04:44:24;460.80;2380.80
70593;DHT22;58294;42.988;20.338;2023-08-06T04:46:50;460.80;2380.80
70593;DHT22;58294;42.988;20.338;2023-08-06T04:49:18;460.90;2380.80
70593;DHT22;58294;42.988;20.338;2023-08-06T04:51:43;460.90;2380.80
70593;DHT22;58294;42.988;20.338;2023-08-06T04:54:10;461.00;2380.80
70593;DHT22;58294;42.988;20.338;2023-08-06T04:56:35;461.10;2380.80
70593;DHT22;58294;42.988;20.338;2023-08-06T04:59:01;461.20;2380.80
70593;DHT22;58294;42.988;20.338;2023-08-06T05:01:27;461.20;2380.80
70593;DHT22;58294;42.988;20.338;2023-08-06T05:03:54;461.30;2380.80
70593;DHT22;58294;42.988;20.338;2023-08-06T05:06:19;461.30;2380.80
70593;DHT22;58294;42.988;20.338;2023-08-06T05:08:45;461.30;2380.80
70593;DHT22;58294;42.988;20.338;2023-08-06T05:11:11;461.40;2380.80
70593;DHT22;58294;42.988;20.338;2023-08-06T05:13:37;461.50;2380.80
70593;DHT22;58294;42.988;20.338;2023-08-06T05:16:02;461.50;2380.80
70593;DHT22;58294;42.988;20.338;2023-08-06T05:18:28;461.50;2380.80
70593;DHT22;58294;42.988;20.338;2023-08-06T05:20:56;461.50;2380.80
70593;DHT22;58294;42.988;20.338;2023-08-06T05:23:21;461.50;2380.80
70593;DHT22;58294;42.988;20.338;2023-08-06T05:25:47;461.50;2380.80
70593;DHT22;58294;42.988;20.338;2023-08-06T05:28:13;461.50;2380.80
70593;DHT22;58294;42.988;20.338;2023-08-06T05:30:40;461.60;2380.80
70593;DHT22;58294;42.988;20.338;2023-08-06T05:33:06;461.60;2380.80
70593;DHT22;58294;42.988;20.338;2023-08-06T05:35:32;461.50;2380.80
70593;DHT22;58294;42.988;20.338;2023-08-06T05:37:57;461.50;2380.80
70593;DHT22;58294;42.988;20.338;2023-08-06T05:40:23;461.50;2380.80
70593;DHT22;58294;42.988;20.338;2023-08-06T05:42:53;461.50;2380.80
70593;DHT22;58294;42.988;20.338;2023-08-06T05:45:19;461.60;2380.80
70593;DHT22;58294;42.988;20.338;2023-08-06T05:47:47;461.50;2380.80
70593;DHT22;58294;42.988;20.338;2023-08-06T05:50:13;461.50;2380.80
70593;DHT22;58294;42.988;20.338;2023-08-06T05:52:39;461.50;2380.80
70593;DHT22;58294;42.988;20.338;2023-08-06T05:55:05;461.50;2380.80
70593;DHT22;58294;42.988;20.338;2023-08-06T05:57:31;461.50;2380.80
70593;DHT22;58294;42.988;20.338;2023-08-06T05:59:57;461.40;2380.80
70593;DHT22;58294;42.988;20.338;2023-08-06T06:02:22;461.40;2380.80
70593;DHT22;58294;42.988;20.338;2023-08-06T06:04:48;461.40;2380.80
70593;DHT22;58294;42.988;20.338;2023-08-06T06:07:14;461.40;2380.80
70593;DHT22;58294;42.988;20.338;2023-08-06T06:09:40;461.30;2380.80
70593;DHT22;58294;42.988;20.338;2023-08-06T06:12:06;461.30;2380.80
70593;DHT22;58294;42.988;20.338;2023-08-06T06:14:32;461.20;2380.80
70593;DHT22;58294;42.988;20.338;2023-08-06T06:16:59;461.30;2380.80
70593;DHT22;58294;42.988;20.338;2023-08-06T06:19:25;461.20;2380.80
70593;DHT22;58294;42.988;20.338;2023-08-06T06:21:51;461.30;2380.80
70593;DHT22;58294;42.988;20.338;2023-08-06T06:24:18;461.30;2380.80
70593;DHT22;58294;42.988;20.338;2023-08-06T06:26:44;461.40;2380.80
70593;DHT22;58294;42.988;20.338;2023-08-06T06:29:10;461.50;2380.80
70593;DHT22;58294;42.988;20.338;2023-08-06T06:31:35;461.70;2380.80
70593;DHT22;58294;42.988;20.338;2023-08-06T06:34:02;486.60;2380.80
70593;DHT22;58294;42.988;20.338;2023-08-06T06:36:28;486.70;2380.80
70593;DHT22;58294;42.988;20.338;2023-08-06T06:38:54;486.80;2380.80
70593;DHT22;58294;42.988;20.338;2023-08-06T06:41:20;486.80;2380.80
70593;DHT22;58294;42.988;20.338;2023-08-06T06:43:45;486.90;2380.80
70593;DHT22;58294;42.988;20.338;2023-08-06T06:46:11;486.90;2380.80
70593;DHT22;58294;42.988;20.338;2023-08-06T06:48:37;487.00;2380.80
70593;DHT22;58294;42.988;20.338;2023-08-06T06:51:03;487.00;2380.80
70593;DHT22;58294;42.988;20.338;2023-08-06T06:53:29;487.00;2380.80
70593;DHT22;58294;42.988;20.338;2023-08-06T06:56:02;487.00;2380.80
70593;DHT22;58294;42.988;20.338;2023-08-06T06:58:28;487.00;2380.80
70593;DHT22;58294;42.988;20.338;2023-08-06T07:00:54;487.00;2380.80
70593;DHT22;58294;42.988;20.338;2023-08-06T07:03:20;487.10;2380.80
70593;DHT22;58294;42.988;20.338;2023-08-06T07:05:46;487.10;2380.80
70593;DHT22;58294;42.988;20.338;2023-08-06T07:08:12;487.20;2380.80
70593;DHT22;58294;42.988;20.338;2023-08-06T07:10:40;487.20;2380.80
70593;DHT22;58294;42.988;20.338;2023-08-06T07:13:06;487.30;2380.80
70593;DHT22;58294;42.988;20.338;2023-08-06T07:15:32;512.00;2380.80
70593;DHT22;58294;42.988;20.338;2023-08-06T07:17:57;512.10;2380.80
70593;DHT22;58294;42.988;20.338;2023-08-06T07:20:23;512.20;2380.80
70593;DHT22;58294;42.988;20.338;2023-08-06T07:22:49;512.40;2380.80
70593;DHT22;58294;42.988;20.338;2023-08-06T07:25:16;512.40;2380.80
70593;DHT22;58294;42.988;20.338;2023-08-06T07:27:42;512.50;2380.80
70593;DHT22;58294;42.988;20.338;2023-08-06T07:30:08;512.60;2380.80
70593;DHT22;58294;42.988;20.338;2023-08-06T07:32:34;512.70;2380.80
70593;DHT22;58294;42.988;20.338;2023-08-06T07:35:00;512.80;2380.80
70593;DHT22;58294;42.988;20.338;2023-08-06T07:37:29;512.90;2380.80
70593;DHT22;58294;42.988;20.338;2023-08-06T07:39:55;537.60;2406.40
70593;DHT22;58294;42.988;20.338;2023-08-06T07:42:22;537.70;2406.40
70593;DHT22;58294;42.988;20.338;2023-08-06T07:44:56;537.90;2406.40
70593;DHT22;58294;42.988;20.338;2023-08-06T07:47:22;538.00;2406.40
70593;DHT22;58294;42.988;20.338;2023-08-06T07:49:48;538.10;2406.40
70593;DHT22;58294;42.988;20.338;2023-08-06T07:52:14;538.20;2406.40
70593;DHT22;58294;42.988;20.338;2023-08-06T07:54:40;538.30;2406.40
70593;DHT22;58294;42.988;20.338;2023-08-06T07:57:06;538.30;2355.20
70593;DHT22;58294;42.988;20.338;2023-08-06T07:59:32;538.40;2329.60
70593;DHT22;58294;42.988;20.338;2023-08-06T08:01:58;563.20;2355.20
70593;DHT22;58294;42.988;20.338;2023-08-06T08:04:24;563.30;2432.00
70593;DHT22;58294;42.988;20.338;2023-08-06T08:06:50;563.40;2278.40
70593;DHT22;58294;42.988;20.338;2023-08-06T08:09:16;563.50;2150.40
70593;DHT22;58294;42.988;20.338;2023-08-06T08:11:42;563.60;2176.00
70593;DHT22;58294;42.988;20.338;2023-08-06T08:14:08;563.70;2124.80
70593;DHT22;58294;42.988;20.338;2023-08-06T08:16:33;563.80;2124.80
70593;DHT22;58294;42.988;20.338;2023-08-06T08:18:59;564.00;2176.00
70593;DHT22;58294;42.988;20.338;2023-08-06T08:21:25;588.80;2304.00
70593;DHT22;58294;42.988;20.338;2023-08-06T08:23:52;589.10;2252.80
70593;DHT22;58294;42.988;20.338;2023-08-06T08:26:18;589.40;2176.00
70593;DHT22;58294;42.988;20.338;2023-08-06T08:28:44;589.60;1996.80
70593;DHT22;58294;42.988;20.338;2023-08-06T08:31:10;589.70;1894.40
70593;DHT22;58294;42.988;20.338;2023-08-06T08:33:40;589.60;1894.40
70593;DHT22;58294;42.988;20.338;2023-08-06T08:36:06;589.70;1945.60
70593;DHT22;58294;42.988;20.338;2023-08-06T08:38:31;614.40;1920.00
70593;DHT22;58294;42.988;20.338;2023-08-06T08:40:57;614.40;1510.40
70593;DHT22;58294;42.988;20.338;2023-08-06T08:43:23;614.40;1510.40
70593;DHT22;58294;42.988;20.338;2023-08-06T08:45:52;614.50;1331.20
70593;DHT22;58294;42.988;20.338;2023-08-06T08:48:21;614.40;1331.20
70593;DHT22;58294;42.988;20.338;2023-08-06T08:50:49;589.70;1331.20
70593;DHT22;58294;42.988;20.338;2023-08-06T08:53:16;614.40;1433.60
70593;DHT22;58294;42.988;20.338;2023-08-06T08:55:43;614.40;1510.40
70593;DHT22;58294;42.988;20.338;2023-08-06T08:58:10;614.60;1510.40
70593;DHT22;58294;42.988;20.338;2023-08-06T09:00:36;614.60;1408.00
70593;DHT22;58294;42.988;20.338;2023-08-06T09:03:06;614.70;1305.60
70593;DHT22;58294;42.988;20.338;2023-08-06T09:05:32;614.80;1280.00
70593;DHT22;58294;42.988;20.338;2023-08-06T09:08:04;614.80;1280.00
70593;DHT22;58294;42.988;20.338;2023-08-06T09:10:30;614.80;1356.80
70593;DHT22;58294;42.988;20.338;2023-08-06T09:12:57;614.80;1305.60
70593;DHT22;58294;42.988;20.338;2023-08-06T09:15:27;614.90;1305.60
70593;DHT22;58294;42.988;20.338;2023-08-06T09:17:56;614.90;1331.20
70593;DHT22;58294;42.988;20.338;2023-08-06T09:20:22;615.10;1459.20
70593;DHT22;58294;42.988;20.338;2023-08-06T09:22:48;615.10;1331.20
70593;DHT22;58294;42.988;20.338;2023-08-06T09:25:24;615.10;1305.60
70593;DHT22;58294;42.988;20.338;2023-08-06T09:27:51;615.00;1331.20
70593;DHT22;58294;42.988;20.338;2023-08-06T09:30:47;615.00;1280.00
70593;DHT22;58294;42.988;20.338;2023-08-06T09:33:18;615.00;1254.40
70593;DHT22;58294;42.988;20.338;2023-08-06T09:35:46;615.00;1305.60
70593;DHT22;58294;42.988;20.338;2023-08-06T09:38:12;614.90;1280.00
70593;DHT22;58294;42.988;20.338;2023-08-06T09:40:39;614.90;1280.00
70593;DHT22;58294;42.988;20.338;2023-08-06T09:43:05;615.00;1305.60
70593;DHT22;58294;42.988;20.338;2023-08-06T09:45:40;615.30;1305.60
70593;DHT22;58294;42.988;20.338;2023-08-06T09:48:08;640.00;1305.60
70593;DHT22;58294;42.988;20.338;2023-08-06T09:50:36;640.20;1280.00
70593;DHT22;58294;42.988;20.338;2023-08-06T09:53:03;640.20;1203.20
70593;DHT22;58294;42.988;20.338;2023-08-06T09:55:30;640.10;1152.00
70593;DHT22;58294;42.988;20.338;2023-08-06T09:57:56;640.10;1177.60
70593;DHT22;58294;42.988;20.338;2023-08-06T10:00:23;640.00;1152.00
70593;DHT22;58294;42.988;20.338;2023-08-06T10:02:49;640.00;1203.20
70593;DHT22;58294;42.988;20.338;2023-08-06T10:05:18;640.00;1203.20
70593;DHT22;58294;42.988;20.338;2023-08-06T10:07:44;640.00;1152.00
70593;DHT22;58294;42.988;20.338;2023-08-06T10:10:10;640.00;1203.20
70593;DHT22;58294;42.988;20.338;2023-08-06T10:12:44;640.10;1203.20
70593;DHT22;58294;42.988;20.338;2023-08-06T10:15:15;640.10;1177.60
70593;DHT22;58294;42.988;20.338;2023-08-06T10:17:43;640.20;1177.60
70593;DHT22;58294;42.988;20.338;2023-08-06T10:20:09;640.10;1152.00
70593;DHT22;58294;42.988;20.338;2023-08-06T10:27:32;640.60;1126.40
70593;DHT22;58294;42.988;20.338;2023-08-06T10:33:09;640.80;1100.80
70593;DHT22;58294;42.988;20.338;2023-08-06T10:35:48;665.70;1126.40
70593;DHT22;58294;42.988;20.338;2023-08-06T10:38:22;691.30;1331.20
70593;DHT22;58294;42.988;20.338;2023-08-06T10:40:48;716.80;1049.60
70593;DHT22;58294;42.988;20.338;2023-08-06T10:43:32;692.00;998.40
70593;DHT22;58294;42.988;20.338;2023-08-06T10:46:01;691.70;998.40
70593;DHT22;58294;42.988;20.338;2023-08-06T10:48:38;691.30;1024.00
70593;DHT22;58294;42.988;20.338;2023-08-06T10:51:09;666.40;1049.60
70593;DHT22;58294;42.988;20.338;2023-08-06T10:53:36;666.30;1049.60
70593;DHT22;58294;42.988;20.338;2023-08-06T10:56:02;666.10;1075.20
70593;DHT22;58294;42.988;20.338;2023-08-06T10:58:37;666.10;1100.80
70593;DHT22;58294;42.988;20.338;2023-08-06T11:01:03;666.30;1100.80
70593;DHT22;58294;42.988;20.338;2023-08-06T11:03:29;666.40;1049.60
70593;DHT22;58294;42.988;20.338;2023-08-06T11:05:54;666.40;1049.60
70593;DHT22;58294;42.988;20.338;2023-08-06T11:08:28;666.40;1049.60
70593;DHT22;58294;42.988;20.338;2023-08-06T11:10:54;666.30;1049.60
70593;DHT22;58294;42.988;20.338;2023-08-06T11:13:23;666.40;1075.20
70593;DHT22;58294;42.988;20.338;2023-08-06T11:15:50;666.50;1100.80
70593;DHT22;58294;42.988;20.338;2023-08-06T11:18:17;691.40;1049.60
70593;DHT22;58294;42.988;20.338;2023-08-06T11:20:43;691.30;1049.60
70593;DHT22;58294;42.988;20.338;2023-08-06T11:23:10;691.40;1075.20
70593;DHT22;58294;42.988;20.338;2023-08-06T11:25:37;691.80;1024.00
70593;DHT22;58294;42.988;20.338;2023-08-06T11:28:03;717.20;1049.60
70593;DHT22;58294;42.988;20.338;2023-08-06T11:30:29;742.50;972.80
70593;DHT22;58294;42.988;20.338;2023-08-06T11:32:56;743.10;947.20
70593;DHT22;58294;42.988;20.338;2023-08-06T11:35:22;768.20;1049.60
70593;DHT22;58294;42.988;20.338;2023-08-06T11:37:48;793.80;1075.20
70593;DHT22;58294;42.988;20.338;2023-08-06T11:40:15;794.40;896.00
70593;DHT22;58294;42.988;20.338;2023-08-06T11:42:41;794.30;844.80
70593;DHT22;58294;42.988;20.338;2023-08-06T11:52:31;844.90;844.80
70593;DHT22;58294;42.988;20.338;2023-08-06T11:57:31;844.90;819.20
70593;DHT22;58294;42.988;20.338;2023-08-06T12:00:04;845.20;793.60
70593;DHT22;58294;42.988;20.338;2023-08-06T12:02:32;844.90;844.80
70593;DHT22;58294;42.988;20.338;2023-08-06T12:07:31;845.20;793.60
70593;DHT22;58294;42.988;20.338;2023-08-06T12:09:57;845.10;793.60
70593;DHT22;58294;42.988;20.338;2023-08-06T12:12:24;844.90;819.20
70593;DHT22;58294;42.988;20.338;2023-08-06T12:14:50;819.70;768.00
70593;DHT22;58294;42.988;20.338;2023-08-06T12:17:16;819.30;793.60
70593;DHT22;58294;42.988;20.338;2023-08-06T12:19:44;794.50;844.80
70593;DHT22;58294;42.988;20.338;2023-08-06T12:22:11;794.10;819.20
70593;DHT22;58294;42.988;20.338;2023-08-06T12:24:36;793.70;844.80
70593;DHT22;58294;42.988;20.338;2023-08-06T12:27:02;768.40;819.20
70593;DHT22;58294;42.988;20.338;2023-08-06T12:29:28;768.10;819.20
70593;DHT22;58294;42.988;20.338;2023-08-06T12:31:54;743.10;870.40
70593;DHT22;58294;42.988;20.338;2023-08-06T12:34:20;742.70;896.00
70593;DHT22;58294;42.988;20.338;2023-08-06T12:36:46;717.70;896.00
70593;DHT22;58294;42.988;20.338;2023-08-06T12:39:11;717.20;896.00
70593;DHT22;58294;42.988;20.338;2023-08-06T12:41:37;716.90;921.60
70593;DHT22;58294;42.988;20.338;2023-08-06T12:44:03;692.00;896.00
70593;DHT22;58294;42.988;20.338;2023-08-06T12:46:29;691.70;947.20
70593;DHT22;58294;42.988;20.338;2023-08-06T12:48:55;691.40;972.80
70593;DHT22;58294;42.988;20.338;2023-08-06T12:51:23;691.30;998.40
70593;DHT22;58294;42.988;20.338;2023-08-06T12:53:49;666.50;1024.00
70593;DHT22;58294;42.988;20.338;2023-08-06T12:56:15;666.10;1024.00
70593;DHT22;58294;42.988;20.338;2023-08-06T12:58:40;665.80;1075.20
70593;DHT22;58294;42.988;20.338;2023-08-06T13:01:07;665.80;1100.80
70593;DHT22;58294;42.988;20.338;2023-08-06T13:03:33;665.60;1100.80
70593;DHT22;58294;42.988;20.338;2023-08-06T13:05:59;640.70;1100.80
70593;DHT22;58294;42.988;20.338;2023-08-06T13:08:25;640.40;1126.40
70593;DHT22;58294;42.988;20.338;2023-08-06T13:10:50;640.20;1228.80
70593;DHT22;58294;42.988;20.338;2023-08-06T13:13:16;640.10;1254.40
70593;DHT22;58294;42.988;20.338;2023-08-06T13:15:42;615.30;1280.00
70593;DHT22;58294;42.988;20.338;2023-08-06T13:18:08;640.00;1254.40
70593;DHT22;58294;42.988;20.338;2023-08-06T13:20:34;640.10;1254.40
70593;DHT22;58294;42.988;20.338;2023-08-06T13:22:59;640.10;1254.40
70593;DHT22;58294;42.988;20.338;2023-08-06T13:25:27;640.10;1228.80
70593;DHT22;58294;42.988;20.338;2023-08-06T13:27:54;640.10;1254.40
70593;DHT22;58294;42.988;20.338;2023-08-06T13:30:20;640.10;1228.80
70593;DHT22;58294;42.988;20.338;2023-08-06T13:32:46;640.00;1254.40
70593;DHT22;58294;42.988;20.338;2023-08-06T13:35:12;615.20;1254.40
70593;DHT22;58294;42.988;20.338;2023-08-06T13:37:38;615.10;1280.00
70593;DHT22;58294;42.988;20.338;2023-08-06T13:40:05;615.10;1305.60
70593;DHT22;58294;42.988;20.338;2023-08-06T13:42:32;615.10;1331.20
70593;DHT22;58294;42.988;20.338;2023-08-06T13:44:58;615.00;1356.80
70593;DHT22;58294;42.988;20.338;2023-08-06T13:47:28;614.90;1331.20
70593;DHT22;58294;42.988;20.338;2023-08-06T13:49:54;614.90;1331.20
70593;DHT22;58294;42.988;20.338;2023-08-06T13:52:21;614.90;1331.20
70593;DHT22;58294;42.988;20.338;2023-08-06T13:54:47;614.90;1305.60
70593;DHT22;58294;42.988;20.338;2023-08-06T13:57:12;614.90;1331.20
70593;DHT22;58294;42.988;20.338;2023-08-06T13:59:38;614.90;1305.60
70593;DHT22;58294;42.988;20.338;2023-08-06T14:02:04;615.00;1331.20
70593;DHT22;58294;42.988;20.338;2023-08-06T14:04:30;615.10;1331.20
70593;DHT22;58294;42.988;20.338;2023-08-06T14:06:56;615.10;1331.20
70593;DHT22;58294;42.988;20.338;2023-08-06T14:09:21;615.20;1331.20
70593;DHT22;58294;42.988;20.338;2023-08-06T14:11:47;640.20;1305.60
70593;DHT22;58294;42.988;20.338;2023-08-06T14:14:13;640.10;1305.60
70593;DHT22;58294;42.988;20.338;2023-08-06T14:16:39;640.10;1305.60
70593;DHT22;58294;42.988;20.338;2023-08-06T14:19:05;640.10;1280.00
70593;DHT22;58294;42.988;20.338;2023-08-06T14:21:31;640.20;1331.20
70593;DHT22;58294;42.988;20.338;2023-08-06T14:23:56;640.20;1305.60
70593;DHT22;58294;42.988;20.338;2023-08-06T14:26:22;640.20;1280.00
70593;DHT22;58294;42.988;20.338;2023-08-06T14:28:48;640.20;1280.00
70593;DHT22;58294;42.988;20.338;2023-08-06T14:31:14;640.10;1305.60
70593;DHT22;58294;42.988;20.338;2023-08-06T14:33:40;640.00;1305.60
70593;DHT22;58294;42.988;20.338;2023-08-06T14:38:32;615.20;1305.60
70593;DHT22;58294;42.988;20.338;2023-08-06T14:40:57;615.10;1305.60
70593;DHT22;58294;42.988;20.338;2023-08-06T14:43:24;615.00;1331.20
70593;DHT22;58294;42.988;20.338;2023-08-06T14:45:50;614.90;1331.20
70593;DHT22;58294;42.988;20.338;2023-08-06T14:48:15;614.90;1356.80
70593;DHT22;58294;42.988;20.338;2023-08-06T14:50:41;614.90;1356.80
70593;DHT22;58294;42.988;20.338;2023-08-06T14:53:07;614.80;1331.20
70593;DHT22;58294;42.988;20.338;2023-08-06T14:55:33;614.70;1331.20